Terminal Aerodrome Forecast
Issued by NWS Mt. Holly, NJ

Current Version | Previous Version | Text Only | Print | Product List | Glossary On
Versions: 1 2 3 4 5 6 7 8 9 10 11 12 13
000
FTUS41 KPHI 201727
TAFACY
TAF
KACY 201727Z 2018/2118 26012G22KT P6SM SKC
     FM202100 26008KT P6SM SKC
     FM210300 VRB03KT P6SM SKC
     FM211400 30005KT P6SM SCT250
     FM211600 26006KT P6SM BKN150=

USA.gov is the U.S. government's official web portal to all federal, state and local government web resources and services.